Auburn, Georgia
Current Conditions -  °F | °C
As of 10:45 AM on Thursday 30 Oct 2014 (Local Time) from KLZU Reporting Station
Clear Clear  
Wind Chill: 59°   Ceiling: Unl
Heat Index: 59°   Visibility: 10mi
Dew Point: 37°   Wind: 0mph
Humidity: 45%   Direction: NA
Pressure: 30.09"   Gusts: NA
Location:  34.01°N, 83.83°W
Report Text: KLZU 301445Z 00000KT 10SM CLR 15/03 A3009 RMK ATIS C ; RWY 25 BK
Loading
Personal Weather Stations






























Interactive Weather Map New forecast layout! Learn more

10-Day Weather Forecast

Advertisements
Track Severe Weather on mobile